Time;durP1;ratioP1;P1;durP2;ratioP2;P2;SDS_P1;SDS_P2;PMS_P1;PMS_P2;Temp;Humidity;BMP_temperature;BMP_pressure;BME280_temperature;BME280_humidity;BME280_pressure;Samples;Min_cycle;Max_cycle;Signal;HPM_P1;HPM_P2
2023/08/01 00:01:29;;;;;;;6.23;4.57;;;;;;;14.53;100.00;95148.91;7400939;19;20478;-90
2023/08/01 00:03:56;;;;;;;4.67;4.27;;;;;;;14.09;100.00;95056.97;7400287;19;20381;-90
2023/08/01 00:06:24;;;;;;;4.40;3.83;;;;;;;15.05;100.00;95203.25;7398341;19;20384;-90
2023/08/01 00:08:51;;;;;;;6.00;4.13;;;;;;;14.59;100.00;95141.31;7399805;19;20377;-90
2023/08/01 00:11:18;;;;;;;5.27;3.80;;;;;;;14.91;100.00;95191.84;7398772;19;20968;-91
2023/08/01 00:13:46;;;;;;;5.63;4.60;;;;;;;14.86;100.00;95187.69;7401196;19;20404;-91
2023/08/01 00:16:13;;;;;;;5.70;4.57;;;;;;;15.00;100.00;95202.88;7403701;19;20397;-91
2023/08/01 00:18:40;;;;;;;5.43;4.80;;;;;;;14.62;100.00;95135.22;7400069;19;20400;-91
2023/08/01 00:21:09;;;;;;;4.70;3.90;;;;;;;14.25;100.00;95074.41;7399787;19;20440;-90
2023/08/01 00:23:37;;;;;;;6.87;3.80;;;;;;;14.96;100.00;95173.59;7399948;19;20421;-91
2023/08/01 00:26:04;;;;;;;5.67;4.83;;;;;;;14.05;100.00;95052.78;7397695;19;20407;-91
2023/08/01 00:28:31;;;;;;;7.07;4.30;;;;;;;13.58;100.00;94973.03;7397928;19;20727;-91
2023/08/01 00:31:03;;;;;;;6.13;4.50;;;;;;;13.66;100.00;94979.13;7394568;19;20432;-91
2023/08/01 00:33:30;;;;;;;5.63;4.43;;;;;;;14.46;100.00;95095.72;7398192;19;20389;-91
2023/08/01 00:35:57;;;;;;;4.50;4.10;;;;;;;14.18;100.00;95049.38;7397709;19;20893;-91
2023/08/01 00:38:24;;;;;;;6.73;4.10;;;;;;;15.05;100.00;95175.84;7398585;19;20885;-91
2023/08/01 00:40:51;;;;;;;5.30;4.17;;;;;;;14.37;100.00;95063.41;7398216;19;20416;-91
2023/08/01 00:43:18;;;;;;;6.87;4.30;;;;;;;14.03;100.00;95001.91;7396845;19;20404;-91
2023/08/01 00:45:46;;;;;;;5.60;5.10;;;;;;;14.59;100.00;95083.56;7395634;19;20460;-91
2023/08/01 00:48:13;;;;;;;5.07;4.27;;;;;;;14.94;100.00;95109.31;7398696;19;20405;-91
2023/08/01 00:50:40;;;;;;;5.93;5.33;;;;;;;14.19;100.00;95019.00;7395220;19;20397;-91
2023/08/01 00:53:08;;;;;;;5.43;4.57;;;;;;;14.21;100.00;95021.25;7397429;19;20411;-91
2023/08/01 00:55:36;;;;;;;5.77;5.00;;;;;;;13.03;100.00;94845.94;7395632;19;20392;-90
2023/08/01 00:58:03;;;;;;;7.23;4.93;;;;;;;14.81;100.00;95112.78;7398828;19;20381;-91
2023/08/01 01:00:30;;;;;;;5.70;4.37;;;;;;;14.18;100.00;95017.47;7397577;19;20423;-91
2023/08/01 01:02:58;;;;;;;4.33;3.93;;;;;;;14.31;100.00;95033.78;7399206;19;20741;-90
2023/08/01 01:05:31;;;;;;;6.53;4.73;;;;;;;13.17;100.00;94853.16;7397378;19;20383;-91
2023/08/01 01:07:58;;;;;;;4.63;4.23;;;;;;;14.47;100.00;95049.38;7398031;19;20380;-90
2023/08/01 01:10:26;;;;;;;11.70;4.50;;;;;;;14.40;100.00;95041.38;7395025;19;20388;-90
2023/08/01 01:12:53;;;;;;;6.00;5.40;;;;;;;14.46;100.00;95035.31;7397857;19;20421;-91
2023/08/01 01:15:20;;;;;;;5.00;4.53;;;;;;;14.10;100.00;94970.00;7394913;19;20400;-91
2023/08/01 01:17:47;;;;;;;5.27;4.73;;;;;;;14.83;100.00;95094.53;7396961;19;20385;-91
2023/08/01 01:20:18;;;;;;;6.00;5.40;;;;;;;14.90;100.00;95103.25;7394999;19;20396;-91
2023/08/01 01:22:46;;;;;;;5.27;3.70;;;;;;;13.97;100.00;94961.66;7395586;19;20460;-91
2023/08/01 01:25:14;;;;;;;6.27;5.67;;;;;;;14.94;100.00;95098.69;7396468;19;20511;-90
2023/08/01 01:27:42;;;;;;;5.00;4.20;;;;;;;14.96;100.00;95099.09;7397225;19;20365;-90
2023/08/01 01:30:09;;;;;;;11.77;5.23;;;;;;;14.52;100.00;95038.34;7393194;19;20437;-90
2023/08/01 01:32:37;;;;;;;5.10;4.60;;;;;;;14.76;100.00;95076.69;7396069;19;20444;-90
2023/08/01 01:35:05;;;;;;;12.83;5.80;;;;;;;14.90;100.00;95100.59;7399996;19;20409;-90
2023/08/01 01:37:32;;;;;;;6.40;5.70;;;;;;;14.06;100.00;94959.38;7401974;19;20419;-90
2023/08/01 01:39:59;;;;;;;7.77;5.80;;;;;;;14.43;100.00;95022.75;7401061;19;20404;-90
2023/08/01 01:42:26;;;;;;;11.83;5.27;;;;;;;14.16;100.00;94998.50;7399349;19;20458;-90
2023/08/01 01:44:53;;;;;;;7.40;5.50;;;;;;;14.20;100.00;94987.84;7402066;19;20399;-90
2023/08/01 01:47:20;;;;;;;6.50;5.17;;;;;;;14.95;100.00;95080.81;7404048;19;20380;-89
2023/08/01 01:49:47;;;;;;;6.20;4.70;;;;;;;15.07;100.00;95102.44;7402106;19;20969;-91
2023/08/01 01:52:14;;;;;;;6.93;5.07;;;;;;;14.71;100.00;95042.50;7401879;19;20424;-91
2023/08/01 01:54:41;;;;;;;10.10;5.20;;;;;;;14.51;100.00;95026.19;7403051;19;20389;-91
2023/08/01 01:57:08;;;;;;;5.37;4.60;;;;;;;13.60;100.00;94895.66;7401170;19;20759;-91
2023/08/01 01:59:36;;;;;;;5.40;4.73;;;;;;;14.48;100.00;95021.63;7402846;19;20400;-91
2023/08/01 02:02:03;;;;;;;8.73;5.97;;;;;;;14.11;100.00;94956.34;7400943;19;20449;-91
2023/08/01 02:04:33;;;;;;;5.67;5.13;;;;;;;13.43;100.00;94861.91;7400459;19;20401;-90
2023/08/01 02:07:00;;;;;;;6.30;5.03;;;;;;;14.08;100.00;94927.88;7405044;19;20384;-90
2023/08/01 02:09:27;;;;;;;5.93;4.60;;;;;;;14.46;100.00;94986.69;7403068;19;20403;-90
2023/08/01 02:11:54;;;;;;;5.40;4.30;;;;;;;13.74;100.00;94873.63;7401604;19;20428;-91
2023/08/01 02:14:22;;;;;;;5.00;4.60;;;;;;;14.04;100.00;94931.69;7402346;19;20401;-91
2023/08/01 02:16:49;;;;;;;7.97;5.10;;;;;;;14.07;100.00;94939.63;7403672;19;20420;-91
2023/08/01 02:19:16;;;;;;;5.57;4.83;;;;;;;13.84;100.00;94900.19;7402161;19;20385;-91
2023/08/01 02:21:43;;;;;;;5.90;4.50;;;;;;;13.60;100.00;94866.44;7399792;19;20476;-91
2023/08/01 02:24:11;;;;;;;6.57;4.13;;;;;;;13.88;100.00;94877.03;7402372;19;20384;-91
2023/08/01 02:26:38;;;;;;;6.50;5.20;;;;;;;14.27;100.00;94939.22;7402022;19;20381;-91
2023/08/01 02:29:06;;;;;;;5.97;4.53;;;;;;;13.45;100.00;94820.56;7402913;19;20373;-91
2023/08/01 02:31:33;;;;;;;6.63;4.50;;;;;;;14.18;100.00;94943.03;7400896;19;20408;-90
2023/08/01 02:34:00;;;;;;;7.10;4.57;;;;;;;13.90;100.00;94890.69;7399900;19;20418;-91
2023/08/01 02:36:27;;;;;;;5.03;4.63;;;;;;;13.26;100.00;94789.13;7401515;19;20948;-91
2023/08/01 02:38:54;;;;;;;12.20;5.30;;;;;;;14.27;100.00;94936.56;7401647;19;20396;-91
2023/08/01 02:41:21;;;;;;;5.67;4.33;;;;;;;13.22;100.00;94783.03;7399191;19;20416;-91
2023/08/01 02:43:48;;;;;;;6.70;4.30;;;;;;;13.07;100.00;94757.63;7401296;19;20466;-91
2023/08/01 02:46:15;;;;;;;7.80;4.40;;;;;;;13.37;100.00;94800.47;7400195;19;20715;-92
2023/08/01 02:48:43;;;;;;;5.40;4.80;;;;;;;13.66;100.00;94843.69;7402588;19;20392;-90
2023/08/01 02:51:10;;;;;;;7.10;5.37;;;;;;;14.04;100.00;94899.78;7399810;19;20460;-91
2023/08/01 02:53:40;;;;;;;7.00;6.10;;;;;;;13.61;100.00;94839.50;7401484;19;20829;-92
2023/08/01 02:56:13;;;;;;;5.90;5.40;;;;;;;14.54;100.00;94966.13;7399650;19;20782;-91
2023/08/01 02:58:43;;;;;;;5.13;4.63;;;;;;;13.29;100.00;94794.41;7399252;19;20713;-91
2023/08/01 03:01:10;;;;;;;6.10;5.60;;;;;;;13.34;100.00;94781.88;7399861;19;20404;-91
2023/08/01 03:03:37;;;;;;;5.50;4.97;;;;;;;14.04;100.00;94895.22;7398611;19;20400;-91
2023/08/01 03:06:05;;;;;;;7.07;5.13;;;;;;;13.57;100.00;94816.75;7400651;19;20385;-91
2023/08/01 03:08:32;;;;;;;7.40;4.73;;;;;;;13.13;100.00;94748.91;7398976;19;20381;-91
2023/08/01 03:10:59;;;;;;;7.90;5.87;;;;;;;13.98;100.00;94888.03;7400745;19;20444;-92
2023/08/01 03:13:26;;;;;;;7.23;5.00;;;;;;;13.38;100.00;94801.25;7400601;19;20460;-92
2023/08/01 03:15:53;;;;;;;7.37;4.93;;;;;;;14.03;100.00;94869.03;7402278;19;20912;-92
2023/08/01 03:18:21;;;;;;;8.70;4.53;;;;;;;14.09;100.00;94892.16;7400703;19;20980;-92
2023/08/01 03:20:49;;;;;;;6.50;5.77;;;;;;;13.77;100.00;94856.94;7400941;19;20420;-91
2023/08/01 03:23:20;;;;;;;6.00;4.30;;;;;;;13.47;100.00;94817.53;7400071;19;20381;-92
2023/08/01 03:25:47;;;;;;;5.23;4.73;;;;;;;14.33;100.00;94919.84;7402816;19;20401;-92
2023/08/01 03:28:15;;;;;;;5.17;4.70;;;;;;;13.06;100.00;94717.06;7398569;19;20732;-91
2023/08/01 03:30:42;;;;;;;7.30;5.70;;;;;;;13.90;100.00;94853.50;7402359;19;20408;-91
2023/08/01 03:33:09;;;;;;;6.67;5.90;;;;;;;14.04;100.00;94855.38;7401894;19;20409;-91
2023/08/01 03:35:37;;;;;;;6.70;5.30;;;;;;;14.08;100.00;94880.03;7398189;19;20389;-91
2023/08/01 03:38:04;;;;;;;5.63;4.20;;;;;;;14.62;100.00;94955.09;7400747;19;20909;-91
2023/08/01 03:40:32;;;;;;;5.20;4.63;;;;;;;14.57;100.00;94936.13;7399298;19;20415;-92
2023/08/01 03:43:01;;;;;;;9.00;4.83;;;;;;;13.66;100.00;94811.81;7398680;19;20428;-92
2023/08/01 03:45:28;;;;;;;7.00;4.27;;;;;;;13.08;100.00;94708.72;7397420;19;20393;-92
2023/08/01 03:47:56;;;;;;;6.53;4.33;;;;;;;12.99;100.00;94712.53;7396845;19;20893;-92
2023/08/01 03:50:23;;;;;;;6.23;4.30;;;;;;;13.18;100.00;94727.31;7395862;19;20373;-92
2023/08/01 03:52:51;;;;;;;6.37;4.47;;;;;;;13.20;100.00;94717.06;7396987;19;20385;-92
2023/08/01 03:55:18;;;;;;;9.50;5.90;;;;;;;13.81;100.00;94805.31;7397787;19;20482;-93
2023/08/01 03:57:45;;;;;;;7.67;4.90;;;;;;;13.09;100.00;94694.31;7426297;19;20541;-93
2023/08/01 04:00:18;;;;;;;4.70;4.20;;;;;;;13.00;100.00;94676.16;7428925;19;20385;-93
2023/08/01 04:02:45;;;;;;;5.50;4.70;;;;;;;13.10;100.00;94690.56;7401383;19;20381;-92
2023/08/01 04:05:17;;;;;;;7.10;5.47;;;;;;;13.28;100.00;94739.06;7399857;19;20445;-92
2023/08/01 04:07:48;;;;;;;8.53;5.10;;;;;;;13.03;100.00;94697.38;7400824;19;20387;-93
2023/08/01 04:10:16;;;;;;;10.60;8.33;;;;;;;14.41;100.00;94900.03;7403111;19;20386;-92
2023/08/01 04:12:44;;;;;;;11.97;7.53;;;;;;;13.00;100.00;94684.88;7405470;19;20912;-92
2023/08/01 04:15:11;;;;;;;10.00;5.70;;;;;;;14.06;100.00;94842.44;7398679;19;20381;-92
2023/08/01 04:17:38;;;;;;;5.23;4.70;;;;;;;12.54;100.00;94604.59;7404304;19;20377;-92
2023/08/01 04:20:10;;;;;;;6.00;4.33;;;;;;;13.41;100.00;94742.81;7402893;19;20402;-92
2023/08/01 04:22:40;;;;;;;5.50;4.50;;;;;;;12.50;100.00;94583.41;7400271;19;20429;-92
2023/08/01 04:25:08;;;;;;;7.50;6.10;;;;;;;12.93;100.00;94663.66;7401266;19;20380;-91
2023/08/01 04:27:35;;;;;;;4.20;3.80;;;;;;;13.53;100.00;94761.00;7399731;19;20380;-92
2023/08/01 04:30:02;;;;;;;5.10;4.57;;;;;;;12.40;100.00;94576.22;7401953;19;20384;-92
2023/08/01 04:32:29;;;;;;;5.60;5.10;;;;;;;12.89;100.00;94639.03;7399700;19;20416;-92
2023/08/01 04:34:56;;;;;;;6.03;4.60;;;;;;;12.80;100.00;94624.66;7398588;19;20928;-91
2023/08/01 04:37:23;;;;;;;6.33;5.17;;;;;;;12.69;100.00;94614.09;7403116;19;20394;-93
2023/08/01 04:39:52;;;;;;;8.03;5.00;;;;;;;13.57;100.00;94743.16;7403294;19;20385;-92
2023/08/01 04:42:20;;;;;;;6.93;5.27;;;;;;;14.48;100.00;94875.38;7405970;19;20408;-93
2023/08/01 04:44:47;;;;;;;6.17;5.17;;;;;;;13.92;100.00;94768.09;7422197;19;20403;-91
2023/08/01 04:47:14;;;;;;;7.67;5.43;;;;;;;14.18;100.00;94820.00;7417034;19;20473;-92
2023/08/01 04:49:42;;;;;;;5.00;4.10;;;;;;;13.36;100.00;94686.72;7412699;19;20392;-92
2023/08/01 04:52:09;;;;;;;6.83;4.87;;;;;;;13.29;100.00;94672.31;7422709;19;20412;-91
2023/08/01 04:54:36;;;;;;;5.30;4.80;;;;;;;14.19;100.00;94795.69;7429967;19;20380;-90
2023/08/01 04:57:03;;;;;;;7.10;4.50;;;;;;;13.34;100.00;94676.47;7427403;19;20396;-90
2023/08/01 04:59:30;;;;;;;6.20;5.60;;;;;;;14.20;100.00;94801.78;7427573;19;20384;-91
2023/08/01 05:01:57;;;;;;;8.30;5.60;;;;;;;13.34;100.00;94655.22;7425466;19;20445;-91
2023/08/01 05:04:25;;;;;;;5.53;5.00;;;;;;;13.43;100.00;94654.84;7403575;19;20409;-91
2023/08/01 05:06:52;;;;;;;5.83;5.23;;;;;;;13.10;100.00;94624.97;7403194;19;20448;-91
2023/08/01 05:09:19;;;;;;;5.77;4.33;;;;;;;13.20;100.00;94642.75;7406954;19;20391;-92
2023/08/01 05:11:46;;;;;;;6.63;5.50;;;;;;;14.59;100.00;94846.81;7403455;19;20424;-92
2023/08/01 05:14:13;;;;;;;7.93;4.93;;;;;;;14.67;100.00;94848.28;7405873;19;20383;-91
2023/08/01 05:16:40;;;;;;;6.20;5.60;;;;;;;12.46;100.00;94510.34;7404316;19;20392;-92
2023/08/01 05:19:07;;;;;;;5.80;4.43;;;;;;;13.88;100.00;94730.13;7406044;19;20737;-92
2023/08/01 05:22:07;;;;;;;4.83;3.90;;;;;;;12.50;100.00;94542.91;7404316;19;20422;-92
2023/08/01 05:24:35;;;;;;;4.40;4.00;;;;;;;13.70;100.00;94721.50;7404335;19;20392;-92
2023/08/01 05:27:02;;;;;;;5.60;4.37;;;;;;;12.49;100.00;94536.84;7408276;19;20743;-92
2023/08/01 05:29:29;;;;;;;5.87;5.03;;;;;;;13.49;100.00;94693.13;7409311;19;20429;-91
2023/08/01 05:31:57;;;;;;;5.10;4.60;;;;;;;12.32;100.00;94522.50;7403728;19;20385;-91
2023/08/01 05:34:24;;;;;;;7.50;5.07;;;;;;;12.56;100.00;94542.13;7404789;19;20726;-91
2023/08/01 05:36:51;;;;;;;5.17;4.57;;;;;;;13.34;100.00;94662.44;7404334;19;20405;-91
2023/08/01 05:39:18;;;;;;;7.63;4.50;;;;;;;13.85;100.00;94744.19;7405598;19;20396;-90
2023/08/01 05:41:45;;;;;;;5.50;5.00;;;;;;;13.16;100.00;94638.59;7401902;19;20411;-91
2023/08/01 05:44:12;;;;;;;4.30;3.90;;;;;;;12.38;100.00;94523.59;7401208;19;20964;-91
2023/08/01 05:46:39;;;;;;;7.57;4.37;;;;;;;13.06;100.00;94620.78;7404060;19;20435;-91
2023/08/01 05:49:07;;;;;;;5.43;4.03;;;;;;;13.09;100.00;94622.69;7403102;19;20393;-91
2023/08/01 05:51:35;;;;;;;7.33;4.93;;;;;;;13.41;100.00;94663.19;7403426;19;20404;-91
2023/08/01 05:54:02;;;;;;;4.73;4.33;;;;;;;12.69;100.00;94553.09;7408039;19;20393;-91
2023/08/01 05:56:29;;;;;;;6.60;4.83;;;;;;;13.46;100.00;94670.75;7405915;19;20730;-91
2023/08/01 05:58:59;;;;;;;6.37;4.50;;;;;;;13.49;100.00;94672.66;7403760;19;20456;-90
2023/08/01 06:01:27;;;;;;;5.10;4.47;;;;;;;12.86;100.00;94584.09;7414958;19;20408;-92
2023/08/01 06:03:55;;;;;;;7.10;5.57;;;;;;;13.53;100.00;94677.94;7430724;19;20373;-93
2023/08/01 06:06:22;;;;;;;5.43;4.47;;;;;;;13.84;100.00;94710.81;7429188;19;20403;-91
2023/08/01 06:08:51;;;;;;;6.47;4.30;;;;;;;13.27;100.00;94640.09;7423179;19;20410;-91
2023/08/01 06:11:18;;;;;;;7.80;5.43;;;;;;;13.15;100.00;94619.25;7419153;19;20790;-90
2023/08/01 06:13:45;;;;;;;4.50;4.10;;;;;;;13.79;100.00;94727.16;7402684;19;20436;-90
2023/08/01 06:16:12;;;;;;;7.37;4.87;;;;;;;14.16;100.00;94761.94;7401785;19;20481;-91
2023/08/01 06:18:39;;;;;;;7.83;4.80;;;;;;;14.09;100.00;94746.00;7398570;19;20393;-90
2023/08/01 06:21:06;;;;;;;5.67;4.50;;;;;;;14.70;100.00;94841.44;7401120;19;20421;-90
2023/08/01 06:23:33;;;;;;;4.50;3.73;;;;;;;13.90;100.00;94727.88;7401410;19;20384;-90
2023/08/01 06:26:00;;;;;;;9.07;5.70;;;;;;;13.85;100.00;94736.22;7400896;19;20389;-90
2023/08/01 06:28:27;;;;;;;7.77;4.80;;;;;;;13.48;100.00;94670.34;7402442;19;20385;-91
2023/08/01 06:30:54;;;;;;;4.97;4.47;;;;;;;12.81;100.00;94573.88;7403239;19;20444;-90
2023/08/01 06:33:22;;;;;;;4.90;4.23;;;;;;;13.41;100.00;94654.47;7399945;19;20381;-90
2023/08/01 06:35:49;;;;;;;7.23;5.00;;;;;;;13.75;100.00;94707.81;7404598;19;20389;-90
2023/08/01 06:38:16;;;;;;;18.03;9.63;;;;;;;13.98;100.00;94742.63;7400711;19;20380;-90
2023/08/01 06:40:43;;;;;;;5.20;4.50;;;;;;;13.55;100.00;94684.38;7399944;19;21043;-90
2023/08/01 06:43:10;;;;;;;5.30;4.00;;;;;;;14.11;100.00;94764.97;7399087;19;20412;-90
2023/08/01 06:45:37;;;;;;;6.77;4.90;;;;;;;12.60;100.00;94537.56;7406044;19;20380;-91
2023/08/01 06:48:05;;;;;;;5.10;4.70;;;;;;;13.52;100.00;94673.78;7405172;19;20413;-91
2023/08/01 06:50:32;;;;;;;5.70;4.90;;;;;;;12.91;100.00;94598.88;7406787;19;20388;-91
2023/08/01 06:53:00;;;;;;;6.63;4.63;;;;;;;14.36;100.00;94799.41;7401931;19;20381;-91
2023/08/01 06:55:27;;;;;;;6.03;5.43;;;;;;;13.44;100.00;94667.72;7404579;19;20392;-92
2023/08/01 06:57:54;;;;;;;4.83;4.10;;;;;;;14.45;100.00;94817.66;7399928;19;20377;-91
2023/08/01 07:00:24;;;;;;;7.53;4.80;;;;;;;14.53;100.00;94824.41;7401157;19;20383;-91
2023/08/01 07:02:51;;;;;;;4.90;4.47;;;;;;;13.36;100.00;94660.94;7397507;19;20391;-90
2023/08/01 07:05:18;;;;;;;5.30;4.80;;;;;;;14.38;100.00;94802.44;7397837;19;20369;-90
2023/08/01 07:07:46;;;;;;;5.50;4.40;;;;;;;14.00;100.00;94755.53;7398523;19;20405;-90
2023/08/01 07:10:13;;;;;;;6.37;4.97;;;;;;;14.68;100.00;94857.03;7398123;19;20385;-90
2023/08/01 07:12:46;;;;;;;6.80;5.10;;;;;;;14.79;100.00;94869.13;7406288;19;20397;-92
2023/08/01 07:15:34;;;;;;;6.83;3.70;;;;;;;12.94;100.00;94620.06;7400119;19;20376;-92
2023/08/01 07:18:16;;;;;;;5.23;4.73;;;;;;;13.96;100.00;94770.72;7401092;19;20393;-91
2023/08/01 07:20:51;;;;;;;7.80;4.40;;;;;;;13.82;100.00;94760.91;7403678;19;20396;-91
2023/08/01 07:23:37;;;;;;;6.27;4.63;;;;;;;13.44;100.00;94688.19;7398427;19;20405;-90
2023/08/01 07:26:10;;;;;;;5.63;4.87;;;;;;;14.46;100.00;94840.44;7397754;19;20385;-91
2023/08/01 07:28:53;;;;;;;5.10;4.33;;;;;;;13.33;100.00;94682.91;7398063;19;20372;-89
2023/08/01 07:31:20;;;;;;;7.03;5.00;;;;;;;13.58;100.00;94720.00;7399743;19;20789;-90
2023/08/01 07:33:47;;;;;;;6.53;3.50;;;;;;;14.07;100.00;94779.44;7401472;19;20421;-89
2023/08/01 07:36:14;;;;;;;5.70;4.57;;;;;;;14.14;100.00;94792.66;7408579;19;20385;-89
2023/08/01 07:38:41;;;;;;;4.67;4.07;;;;;;;14.57;100.00;94841.13;7431699;19;20429;-90
2023/08/01 07:41:17;;;;;;;6.73;6.00;;;;;;;13.77;100.00;94724.13;7422558;19;20472;-90
2023/08/01 07:43:44;;;;;;;4.20;3.33;;;;;;;13.31;100.00;94664.72;7401609;19;20372;-89
2023/08/01 07:46:11;;;;;;;5.20;4.07;;;;;;;14.29;100.00;94806.66;7398812;19;20387;-89
2023/08/01 07:48:38;;;;;;;6.40;4.10;;;;;;;14.00;100.00;94742.25;7402239;19;20397;-90
2023/08/01 07:51:09;;;;;;;4.80;4.23;;;;;;;13.84;100.00;94721.44;7404548;19;20420;-90
2023/08/01 07:53:39;;;;;;;5.10;4.70;;;;;;;13.58;100.00;94672.97;7422691;19;20395;-91
2023/08/01 07:56:08;;;;;;;5.40;4.00;;;;;;;14.39;100.00;94781.91;7421403;19;20385;-91
2023/08/01 07:58:36;;;;;;;6.80;4.37;;;;;;;14.06;100.00;94730.84;7422606;19;20373;-90
2023/08/01 08:01:04;;;;;;;4.73;4.23;;;;;;;13.08;100.00;94576.06;7406938;19;20412;-90
2023/08/01 08:03:32;;;;;;;4.30;3.67;;;;;;;13.22;100.00;94591.97;7399081;19;20412;-90
2023/08/01 08:05:59;;;;;;;4.57;4.17;;;;;;;13.73;100.00;94671.00;7400440;19;20461;-90
2023/08/01 08:08:27;;;;;;;8.53;4.17;;;;;;;14.10;100.00;94734.22;7401749;19;20396;-90
2023/08/01 08:10:54;;;;;;;7.80;4.47;;;;;;;15.04;100.00;94884.19;7398438;19;20926;-90
2023/08/01 08:13:21;;;;;;;5.23;3.90;;;;;;;13.03;100.00;94567.38;7401031;19;20778;-90
2023/08/01 08:15:49;;;;;;;3.93;3.53;;;;;;;14.05;100.00;94721.34;7399731;19;20422;-90
2023/08/01 08:18:19;;;;;;;4.13;3.50;;;;;;;13.63;100.00;94679.81;7400261;19;20391;-91
2023/08/01 08:20:49;;;;;;;4.00;3.60;;;;;;;13.80;100.00;94688.81;7400754;19;20400;-90
2023/08/01 08:23:20;;;;;;;9.27;5.97;;;;;;;12.95;100.00;94579.16;7398133;19;20380;-90
2023/08/01 08:25:50;;;;;;;8.50;6.40;;;;;;;13.59;100.00;94663.88;7401055;19;20397;-90
2023/08/01 08:28:32;;;;;;;4.40;3.90;;;;;;;12.66;100.00;94529.97;7398280;19;20941;-91
2023/08/01 08:31:04;;;;;;;8.13;4.57;;;;;;;13.77;100.00;94694.91;7401406;19;20436;-90
2023/08/01 08:33:32;;;;;;;6.00;4.60;;;;;;;13.67;100.00;94683.19;7429257;19;20367;-90
2023/08/01 08:36:02;;;;;;;4.83;3.20;;;;;;;12.76;100.00;94545.09;7425018;19;20412;-90
2023/08/01 08:38:29;;;;;;;4.30;3.83;;;;;;;12.82;100.00;94551.53;7398838;19;20401;-90
2023/08/01 08:41:09;;;;;;;4.10;3.70;;;;;;;12.74;100.00;94526.19;7399145;19;20412;-90
2023/08/01 08:43:37;;;;;;;3.63;3.23;;;;;;;14.13;100.00;94730.78;7398762;19;20368;-90
2023/08/01 08:46:05;;;;;;;3.30;3.00;;;;;;;12.41;100.00;94493.69;7398404;19;20380;-90
2023/08/01 08:48:33;;;;;;;4.00;3.70;;;;;;;13.10;100.00;94573.81;7398905;19;20393;-90
2023/08/01 08:51:03;;;;;;;5.23;3.23;;;;;;;14.11;100.00;94701.19;7397549;19;20412;-90
2023/08/01 08:53:34;;;;;;;4.07;3.30;;;;;;;12.92;100.00;94512.84;7399456;19;20917;-90
2023/08/01 08:56:02;;;;;;;8.07;5.80;;;;;;;14.86;100.00;94798.41;7398927;19;20376;-90
2023/08/01 08:58:31;;;;;;;6.13;4.73;;;;;;;14.48;100.00;94737.84;7401091;19;20400;-90
2023/08/01 09:01:01;;;;;;;6.60;4.33;;;;;;;14.93;100.00;94793.78;7398324;19;20405;-90
2023/08/01 09:03:29;;;;;;;8.10;3.97;;;;;;;14.77;100.00;94774.88;7398329;19;20373;-91
2023/08/01 09:06:31;;;;;;;7.43;3.70;;;;;;;15.20;100.00;94833.13;7398829;19;20747;-91
2023/08/01 09:09:08;;;;;;;3.40;3.10;;;;;;;14.44;100.00;94742.44;7396469;19;20925;-90
2023/08/01 09:11:46;;;;;;;4.03;3.20;;;;;;;15.23;100.00;94857.06;7399415;19;20962;-90
2023/08/01 09:14:13;;;;;;;4.50;4.10;;;;;;;15.20;100.00;94857.84;7399841;19;20392;-90
2023/08/01 09:16:42;;;;;;;3.70;2.50;;;;;;;14.80;100.00;94798.03;7399896;19;20389;-90
2023/08/01 09:19:17;;;;;;;3.70;2.90;;;;;;;15.02;100.00;94828.69;7405870;19;20373;-89
2023/08/01 09:21:46;;;;;;;2.67;2.47;;;;;;;14.85;100.00;94780.91;7412140;19;20425;-90
2023/08/01 09:24:15;;;;;;;4.87;2.73;;;;;;;13.76;100.00;94630.41;7417138;19;20396;-90
2023/08/01 09:26:43;;;;;;;5.00;3.70;;;;;;;14.45;100.00;94708.63;7414820;19;20908;-90
2023/08/01 09:29:10;;;;;;;4.80;4.40;;;;;;;14.87;100.00;94758.09;7399167;19;20388;-90
2023/08/01 09:31:42;;;;;;;3.43;3.13;;;;;;;13.58;100.00;94553.47;7397461;19;20429;-89
2023/08/01 09:34:25;;;;;;;3.00;2.63;;;;;;;14.04;100.00;94592.28;7401606;19;20412;-90
2023/08/01 09:36:58;;;;;;;2.93;2.73;;;;;;;14.98;100.00;94742.03;7398493;19;20438;-89
2023/08/01 09:42:24;;;;;;;4.97;4.37;;;;;;;14.56;100.00;94632.19;7397148;19;20498;-89
2023/08/01 09:44:51;;;;;;;3.67;3.33;;;;;;;13.59;100.00;94482.53;7395708;19;20396;-90
2023/08/01 09:47:20;;;;;;;6.13;3.83;;;;;;;14.64;100.00;94628.28;7399998;19;20384;-90
2023/08/01 09:49:52;;;;;;;5.07;3.73;;;;;;;14.35;100.00;94597.75;7398216;19;20474;-89
2023/08/01 09:52:27;;;;;;;12.27;9.57;;;;;;;14.46;100.00;94635.66;7400245;19;21008;-89
2023/08/01 09:54:54;;;;;;;10.93;6.20;;;;;;;14.61;100.00;94682.28;7406642;19;20384;-89
2023/08/01 09:57:22;;;;;;;5.37;3.60;;;;;;;13.44;100.00;94532.31;7408480;19;20386;-89
2023/08/01 09:59:50;;;;;;;3.93;3.27;;;;;;;15.41;100.00;94864.16;7416968;19;20389;-89
2023/08/01 10:02:23;;;;;;;6.20;3.47;;;;;;;14.21;100.00;94657.09;7410357;19;21008;-88
2023/08/01 10:04:57;;;;;;;4.70;4.30;;;;;;;13.26;100.00;94516.50;7404631;19;20389;-89
2023/08/01 10:07:30;;;;;;;5.40;4.90;;;;;;;14.79;100.00;94740.66;7405097;19;20381;-89
2023/08/01 10:10:00;;;;;;;4.47;3.80;;;;;;;14.23;100.00;94654.03;7408245;19;20917;-89
2023/08/01 10:12:27;;;;;;;4.40;4.00;;;;;;;13.89;100.00;94612.13;7403004;19;20752;-89
2023/08/01 10:14:55;;;;;;;5.23;4.73;;;;;;;13.82;100.00;94622.78;7406547;19;20497;-89
2023/08/01 10:17:26;;;;;;;6.67;6.07;;;;;;;13.81;100.00;94626.59;7405131;19;20397;-89
2023/08/01 10:19:56;;;;;;;6.43;5.83;;;;;;;13.97;100.00;94658.00;7406385;19;20397;-90
2023/08/01 10:22:24;;;;;;;4.90;4.20;;;;;;;13.60;100.00;94628.19;7401489;19;20428;-90
2023/08/01 10:24:55;;;;;;;8.40;7.57;;;;;;;14.52;100.00;94756.41;7400829;19;20929;-90
2023/08/01 10:27:25;;;;;;;9.13;7.73;;;;;;;13.97;100.00;94672.03;7400976;19;20389;-90
2023/08/01 10:30:06;;;;;;;5.40;4.90;;;;;;;13.72;100.00;94647.50;7402148;19;20500;-90
2023/08/01 10:32:36;;;;;;;5.30;4.80;;;;;;;12.76;100.00;94502.69;7399168;19;20417;-89
2023/08/01 10:35:05;;;;;;;6.27;5.60;;;;;;;13.31;100.00;94573.72;7402384;19;20762;-90
2023/08/01 10:37:48;;;;;;;5.20;4.70;;;;;;;13.24;100.00;94552.53;7403133;19;20385;-90
2023/08/01 10:40:18;;;;;;;4.07;3.07;;;;;;;12.77;100.00;94476.91;7403255;19;20377;-90
2023/08/01 10:42:46;;;;;;;5.03;3.63;;;;;;;13.40;100.00;94573.31;7403022;19;20393;-90
2023/08/01 10:45:24;;;;;;;4.53;4.13;;;;;;;15.05;100.00;94825.25;7401153;19;20400;-90
2023/08/01 10:48:15;;;;;;;5.70;4.50;;;;;;;13.94;100.00;94646.25;7401143;19;20372;-90
2023/08/01 10:50:42;;;;;;;5.40;4.20;;;;;;;14.88;100.00;94764.16;7402876;19;20397;-90
2023/08/01 10:53:09;;;;;;;4.63;3.63;;;;;;;14.47;100.00;94688.47;7401985;19;20392;-90
2023/08/01 10:55:45;;;;;;;4.20;3.80;;;;;;;14.39;100.00;94630.38;7402892;19;20368;-90
2023/08/01 10:58:12;;;;;;;4.67;4.17;;;;;;;14.34;100.00;94606.88;7401046;19;20388;-90
2023/08/01 11:00:40;;;;;;;5.80;5.20;;;;;;;14.83;100.00;94660.81;7399379;19;20417;-90
2023/08/01 11:03:06;;;;;;;6.40;4.30;;;;;;;15.61;100.00;94788.66;7400924;19;20372;-90
2023/08/01 11:05:34;;;;;;;3.90;3.60;;;;;;;15.08;100.00;94709.22;7398173;19;20411;-89
2023/08/01 11:08:03;;;;;;;3.80;3.50;;;;;;;14.46;100.00;94620.47;7398455;19;20397;-89
2023/08/01 11:10:32;;;;;;;6.60;4.03;;;;;;;15.51;100.00;94778.09;7398845;19;20385;-90
2023/08/01 11:13:00;;;;;;;5.63;4.30;;;;;;;14.68;100.00;94654.84;7401843;19;20452;-90
2023/08/01 11:15:29;;;;;;;4.00;3.17;;;;;;;13.37;100.00;94491.81;7399061;19;20421;-90
2023/08/01 11:17:59;;;;;;;5.60;3.73;;;;;;;13.53;100.00;94494.75;7402981;19;20394;-90
2023/08/01 11:20:28;;;;;;;4.73;3.30;;;;;;;14.87;100.00;94688.16;7400249;19;20476;-89
2023/08/01 11:22:59;;;;;;;4.50;4.10;;;;;;;14.42;100.00;94598.44;7402111;19;20387;-90
2023/08/01 11:25:34;;;;;;;4.23;3.50;;;;;;;15.59;100.00;94780.28;7398312;19;20337;-89
2023/08/01 11:28:15;;;;;;;3.63;3.30;;;;;;;15.64;100.00;94784.44;7402714;19;20451;-90
2023/08/01 11:30:42;;;;;;;4.87;3.70;;;;;;;15.65;100.00;94788.63;7401042;19;20400;-90
2023/08/01 11:33:16;;;;;;;3.80;3.33;;;;;;;14.33;100.00;94614.09;7401279;19;20381;-90
2023/08/01 11:35:44;;;;;;;4.30;3.40;;;;;;;15.48;100.00;94778.84;7401821;19;20396;-89